createdAt,value
2023-03-31T03:17:23.171Z,68.24
2023-03-31T03:20:02.287Z,67.41
2023-03-31T03:22:31.396Z,67.79
2023-03-31T03:25:00.429Z,68.93
2023-03-31T03:27:29.858Z,68.04
2023-03-31T03:30:03.123Z,68.44
2023-03-31T03:32:36.718Z,68.83
2023-03-31T03:35:08.096Z,68.31
2023-03-31T03:37:37.209Z,67.00
2023-03-31T03:40:07.448Z,67.39
2023-03-31T03:42:36.657Z,68.74
2023-03-31T03:45:06.454Z,67.98
2023-03-31T03:47:37.890Z,66.76
2023-03-31T03:50:08.005Z,65.55
2023-03-31T03:52:37.098Z,66.52
2023-03-31T03:55:06.845Z,67.54
2023-03-31T03:57:40.640Z,68.01
2023-03-31T04:00:12.969Z,67.23
2023-03-31T04:02:43.667Z,66.26
2023-03-31T04:05:13.007Z,67.34
2023-03-31T04:07:42.143Z,68.09
2023-03-31T04:10:11.823Z,67.47
2023-03-31T04:12:43.987Z,66.86
2023-03-31T04:15:16.008Z,67.78
2023-03-31T04:17:51.362Z,69.48
2023-03-31T04:20:20.716Z,68.63
2023-03-31T04:22:52.264Z,68.49
2023-03-31T04:25:23.091Z,67.51
2023-03-31T04:27:55.276Z,66.48
2023-03-31T04:30:25.737Z,66.47
2023-03-31T04:32:58.486Z,65.90
2023-03-31T04:35:39.030Z,65.27
2023-03-31T04:38:09.323Z,64.67
2023-03-31T04:40:40.372Z,65.84
2023-03-31T04:43:09.424Z,65.71
2023-03-31T04:45:38.557Z,65.62
2023-03-31T04:48:09.723Z,65.83
2023-03-31T04:50:39.492Z,64.71
2023-03-31T04:53:08.608Z,66.16
2023-03-31T04:55:37.782Z,65.88
2023-03-31T04:58:06.800Z,65.72
2023-03-31T05:00:35.893Z,63.90
2023-03-31T05:03:05.226Z,63.70
2023-03-31T05:05:35.977Z,63.66
2023-03-31T05:08:05.734Z,64.42
2023-03-31T05:10:37.641Z,64.58
2023-03-31T05:13:06.755Z,62.50
2023-03-31T05:15:35.831Z,61.56
2023-03-31T05:18:05.471Z,61.41
2023-03-31T05:20:36.157Z,61.68
2023-03-31T05:23:05.289Z,62.04
2023-03-31T05:25:34.340Z,62.50
2023-03-31T05:28:04.595Z,60.48
2023-03-31T05:30:33.773Z,60.06
2023-03-31T05:33:02.903Z,58.83
2023-03-31T05:35:32.112Z,60.34
2023-03-31T05:38:02.729Z,59.69
2023-03-31T05:40:31.886Z,58.93
2023-03-31T05:43:01.068Z,59.54
2023-03-31T05:45:30.146Z,60.14
2023-03-31T05:47:59.307Z,59.97
2023-03-31T05:50:28.528Z,59.97
2023-03-31T05:52:58.336Z,59.70
2023-03-31T05:55:28.992Z,59.37
2023-03-31T05:57:58.416Z,59.58
2023-03-31T06:00:27.803Z,59.89
2023-03-31T06:02:57.112Z,60.91
2023-03-31T06:05:27.261Z,62.18
2023-03-31T06:07:56.292Z,61.95
2023-03-31T06:10:25.430Z,59.73
2023-03-31T06:12:56.102Z,57.08
2023-03-31T06:15:26.319Z,58.23
2023-03-31T06:17:55.567Z,58.25
2023-03-31T06:20:28.124Z,58.86
2023-03-31T06:22:58.021Z,59.24
2023-03-31T06:25:30.640Z,58.54
2023-03-31T06:28:03.199Z,60.33
2023-03-31T06:30:32.486Z,60.54
2023-03-31T06:33:01.847Z,60.42
2023-03-31T06:35:31.212Z,59.50
2023-03-31T06:38:00.751Z,57.47
2023-03-31T06:40:29.992Z,57.19
2023-03-31T06:42:59.029Z,55.35
2023-03-31T06:45:29.640Z,55.29
2023-03-31T06:47:58.761Z,57.20
2023-03-31T06:50:27.917Z,55.98
2023-03-31T06:52:56.973Z,56.73
2023-03-31T06:55:26.017Z,56.35
2023-03-31T06:57:55.316Z,57.30
2023-03-31T07:00:26.365Z,56.52
2023-03-31T07:02:57.145Z,57.87
2023-03-31T07:05:27.930Z,57.56
2023-03-31T07:07:57.986Z,57.68
2023-03-31T07:10:28.088Z,56.61
2023-03-31T07:12:57.293Z,55.37
2023-03-31T07:15:28.681Z,56.92
2023-03-31T07:18:02.958Z,56.39
2023-03-31T07:20:33.180Z,54.04
2023-03-31T07:23:05.001Z,53.42
2023-03-31T07:25:34.615Z,54.54
2023-03-31T07:28:04.942Z,54.34
2023-03-31T07:30:34.362Z,55.21
2023-03-31T07:33:05.639Z,54.45
2023-03-31T07:35:34.867Z,55.46
2023-03-31T07:38:03.993Z,55.75
2023-03-31T07:40:35.156Z,55.26
2023-03-31T07:43:04.393Z,55.83
2023-03-31T07:45:34.578Z,56.67
2023-03-31T07:48:05.969Z,57.10
2023-03-31T07:50:35.244Z,55.44
2023-03-31T07:53:04.437Z,56.53
2023-03-31T07:55:33.506Z,57.08
2023-03-31T07:58:02.667Z,56.96
2023-03-31T08:00:32.068Z,56.34
2023-03-31T08:03:01.185Z,56.63
2023-03-31T08:05:31.864Z,56.98
2023-03-31T08:08:01.008Z,55.38
2023-03-31T08:10:30.421Z,55.56
2023-03-31T08:12:59.613Z,56.21
2023-03-31T08:15:28.858Z,56.99
2023-03-31T08:17:57.977Z,56.69
2023-03-31T08:20:27.053Z,56.31
2023-03-31T08:22:57.622Z,56.23
2023-03-31T08:25:26.830Z,55.61
2023-03-31T08:27:56.579Z,55.75
2023-03-31T08:30:25.753Z,55.39
2023-03-31T08:32:54.896Z,54.82
2023-03-31T08:35:24.064Z,54.69
2023-03-31T08:37:53.652Z,55.40
2023-03-31T08:40:27.191Z,55.60
2023-03-31T08:42:58.833Z,55.49
2023-03-31T08:45:33.261Z,55.27
2023-03-31T08:48:07.412Z,55.45
2023-03-31T08:50:43.322Z,55.48
2023-03-31T08:53:22.606Z,54.68
2023-03-31T08:55:55.352Z,55.63
2023-03-31T08:58:36.905Z,56.11
2023-03-31T09:01:17.379Z,55.38
2023-03-31T09:03:59.554Z,54.87
2023-03-31T09:06:36.817Z,54.71
2023-03-31T09:09:12.226Z,54.78
2023-03-31T09:11:49.786Z,54.22
2023-03-31T09:14:29.063Z,55.30
2023-03-31T09:17:09.362Z,55.99
2023-03-31T09:19:43.478Z,56.76
2023-03-31T09:22:18.104Z,56.17
2023-03-31T09:24:56.679Z,55.61
2023-03-31T09:27:31.751Z,55.34
2023-03-31T09:30:06.283Z,56.32
2023-03-31T09:32:35.579Z,55.66
2023-03-31T09:35:17.936Z,56.10
2023-03-31T09:37:47.113Z,54.83
2023-03-31T09:40:20.668Z,54.51
2023-03-31T09:43:03.166Z,55.38
2023-03-31T09:45:34.425Z,55.52
2023-03-31T09:48:07.418Z,55.74
2023-03-31T09:50:41.719Z,56.39
2023-03-31T09:53:17.260Z,55.55
2023-03-31T09:55:49.714Z,55.16
2023-03-31T09:58:21.265Z,55.39
2023-03-31T10:01:01.745Z,56.29
2023-03-31T10:03:37.182Z,56.20
2023-03-31T10:06:12.314Z,55.69
2023-03-31T10:08:43.974Z,55.89
2023-03-31T10:11:15.120Z,55.86
2023-03-31T10:13:50.300Z,56.11
2023-03-31T10:16:25.390Z,56.24
2023-03-31T10:18:54.624Z,55.94
2023-03-31T10:21:26.324Z,55.73
2023-03-31T10:23:56.767Z,56.37
2023-03-31T10:26:29.580Z,56.13
2023-03-31T10:29:00.375Z,56.96
2023-03-31T10:31:37.555Z,56.54
2023-03-31T10:34:09.785Z,56.83
2023-03-31T10:36:39.604Z,57.04
2023-03-31T10:39:09.820Z,56.80
2023-03-31T10:41:41.526Z,57.14
2023-03-31T10:44:33.763Z,56.92
2023-03-31T10:47:08.194Z,57.66
2023-03-31T10:49:41.300Z,56.46
2023-03-31T10:52:20.035Z,56.45
2023-03-31T10:54:50.601Z,56.97
2023-03-31T10:57:25.633Z,56.94
2023-03-31T11:00:15.574Z,57.69
2023-03-31T11:03:03.149Z,57.33
2023-03-31T11:05:38.572Z,57.23
2023-03-31T11:08:32.812Z,57.11
2023-03-31T11:11:24.030Z,57.85
2023-03-31T11:14:02.814Z,57.35
2023-03-31T11:16:42.154Z,56.56
2023-03-31T11:19:24.820Z,57.38
2023-03-31T11:22:05.092Z,58.11
2023-03-31T11:24:51.288Z,57.68
2023-03-31T11:27:33.964Z,57.89
2023-03-31T11:30:11.341Z,57.60
2023-03-31T11:32:57.706Z,58.18
2023-03-31T11:35:45.852Z,57.88
2023-03-31T11:38:33.949Z,58.48
2023-03-31T11:41:07.192Z,58.41
2023-03-31T11:43:42.051Z,58.44
2023-03-31T11:46:15.383Z,58.56
2023-03-31T11:48:49.813Z,58.26
2023-03-31T11:51:22.767Z,57.94
2023-03-31T11:53:55.474Z,57.54
2023-03-31T11:56:28.052Z,58.41
2023-03-31T11:59:01.217Z,58.15
2023-03-31T12:01:38.435Z,58.40
2023-03-31T12:04:19.126Z,58.69
2023-03-31T12:06:51.061Z,58.60
2023-03-31T12:09:27.782Z,58.75
2023-03-31T12:12:04.300Z,59.16
2023-03-31T12:14:37.257Z,58.62
2023-03-31T12:17:12.397Z,58.52
2023-03-31T12:19:49.333Z,58.44
2023-03-31T12:22:24.088Z,57.87
2023-03-31T12:24:54.629Z,58.94
2023-03-31T12:27:29.325Z,58.21
2023-03-31T12:30:02.256Z,58.78
2023-03-31T12:32:36.927Z,58.58
2023-03-31T12:35:16.945Z,59.16
2023-03-31T12:38:09.096Z,59.35
2023-03-31T12:40:48.789Z,59.44
2023-03-31T12:43:46.084Z,58.80
2023-03-31T12:46:29.995Z,59.20
2023-03-31T12:49:12.766Z,58.47
2023-03-31T12:52:02.447Z,58.92
2023-03-31T12:55:07.581Z,59.45
2023-03-31T12:57:37.836Z,59.69
2023-03-31T13:00:22.941Z,59.73
2023-03-31T13:02:52.726Z,60.20
2023-03-31T13:05:49.402Z,60.37
2023-03-31T13:08:54.159Z,59.64
2023-03-31T13:11:25.208Z,60.26
2023-03-31T13:14:02.219Z,59.88
2023-03-31T13:16:32.760Z,60.55
2023-03-31T13:19:02.591Z,60.53
2023-03-31T13:21:32.177Z,60.22
2023-03-31T13:24:08.938Z,60.70
2023-03-31T13:26:49.113Z,60.87
2023-03-31T13:29:24.794Z,60.57
2023-03-31T13:32:21.291Z,60.87
2023-03-31T13:35:00.635Z,61.55
2023-03-31T13:38:03.962Z,61.46
2023-03-31T13:40:57.686Z,61.34
2023-03-31T13:44:05.131Z,60.92
2023-03-31T13:47:01.514Z,61.58
2023-03-31T13:49:54.177Z,61.68
2023-03-31T13:52:37.757Z,61.45
2023-03-31T13:55:37.316Z,61.47
2023-03-31T13:58:33.514Z,62.89
2023-03-31T14:01:42.830Z,61.82
2023-03-31T14:04:30.566Z,62.73
2023-03-31T14:07:02.709Z,62.16
2023-03-31T14:09:35.305Z,62.47
2023-03-31T14:12:22.265Z,63.05
2023-03-31T14:14:56.701Z,62.91
2023-03-31T14:17:30.389Z,62.77
2023-03-31T14:20:30.254Z,63.40
2023-03-31T14:23:12.044Z,63.15
2023-03-31T14:25:51.801Z,62.72
2023-03-31T14:28:33.538Z,62.87
2023-03-31T14:31:20.661Z,62.60
2023-03-31T14:34:08.957Z,63.37
2023-03-31T14:36:48.127Z,62.72
2023-03-31T14:39:23.417Z,62.96
2023-03-31T14:41:55.428Z,62.91
2023-03-31T14:44:27.360Z,63.31
2023-03-31T14:46:59.795Z,63.96
2023-03-31T14:49:30.886Z,63.22
2023-03-31T14:52:03.988Z,63.82
2023-03-31T14:54:38.825Z,63.80
2023-03-31T14:57:08.371Z,63.84
2023-03-31T14:59:39.102Z,63.99
2023-03-31T15:02:17.925Z,63.92
2023-03-31T15:04:52.077Z,63.59
2023-03-31T15:07:21.238Z,64.07
2023-03-31T15:09:53.334Z,63.42
2023-03-31T15:12:24.781Z,63.91
2023-03-31T15:14:58.820Z,63.61
2023-03-31T15:17:33.676Z,63.96
2023-03-31T15:20:05.307Z,63.89
2023-03-31T15:22:34.436Z,64.00
2023-03-31T15:25:03.626Z,64.57
2023-03-31T15:27:37.942Z,64.61
2023-03-31T15:30:09.944Z,64.06
2023-03-31T15:32:42.502Z,64.18
2023-03-31T15:35:24.015Z,64.38
2023-03-31T15:37:56.628Z,64.46
2023-03-31T15:40:29.318Z,64.06
2023-03-31T15:43:13.702Z,63.82
2023-03-31T15:45:52.461Z,64.15
2023-03-31T15:48:25.656Z,64.07
2023-03-31T15:50:54.820Z,64.82
2023-03-31T15:53:37.134Z,65.05
2023-03-31T15:56:07.833Z,64.22
2023-03-31T15:58:56.208Z,64.29
2023-03-31T16:01:29.751Z,64.34
2023-03-31T16:04:01.248Z,64.18
2023-03-31T16:06:41.225Z,64.44
2023-03-31T16:09:12.592Z,64.68
2023-03-31T16:11:45.576Z,64.73
2023-03-31T16:14:22.124Z,64.66
2023-03-31T16:16:56.455Z,64.49
2023-03-31T16:19:29.934Z,64.58
2023-03-31T16:22:02.578Z,64.28
2023-03-31T16:24:35.109Z,64.36
2023-03-31T16:27:08.241Z,64.61
2023-03-31T16:29:41.089Z,64.99
2023-03-31T16:32:14.559Z,64.91
2023-03-31T16:35:08.270Z,64.74
2023-03-31T16:37:37.490Z,64.60
2023-03-31T16:40:07.837Z,64.64
2023-03-31T16:42:37.267Z,64.85
2023-03-31T16:45:14.222Z,64.99
2023-03-31T16:47:45.823Z,64.78
2023-03-31T16:50:16.995Z,64.87
2023-03-31T16:52:47.684Z,64.63
2023-03-31T16:55:17.158Z,65.20
2023-03-31T16:57:46.693Z,65.03
2023-03-31T17:00:16.699Z,64.58
2023-03-31T17:02:46.577Z,64.50
2023-03-31T17:05:18.044Z,64.73
2023-03-31T17:07:48.338Z,64.55
2023-03-31T17:10:18.008Z,64.75
2023-03-31T17:12:47.247Z,64.55
2023-03-31T17:15:16.694Z,64.70
2023-03-31T17:17:46.887Z,64.55
2023-03-31T17:20:17.810Z,64.96
2023-03-31T17:22:47.433Z,64.98
2023-03-31T17:25:16.820Z,64.64
2023-03-31T17:27:46.433Z,64.85
2023-03-31T17:30:16.493Z,64.92
2023-03-31T17:32:46.034Z,64.88
2023-03-31T17:35:20.864Z,64.59
2023-03-31T17:37:54.018Z,64.67
2023-03-31T17:40:23.449Z,64.45
2023-03-31T17:42:53.075Z,64.51
2023-03-31T17:45:22.482Z,64.47
2023-03-31T17:47:52.149Z,64.27
2023-03-31T17:50:21.925Z,64.68
2023-03-31T17:52:52.798Z,64.60
2023-03-31T17:55:22.108Z,64.30
2023-03-31T17:57:51.422Z,64.50
2023-03-31T18:00:21.269Z,64.47
2023-03-31T18:02:51.667Z,64.35
2023-03-31T18:05:21.105Z,64.61
2023-03-31T18:07:50.406Z,64.56
2023-03-31T18:10:23.039Z,64.35
2023-03-31T18:12:52.438Z,64.87
2023-03-31T18:15:22.013Z,64.31
2023-03-31T18:17:51.309Z,63.93
2023-03-31T18:20:21.321Z,64.55
2023-03-31T18:22:50.556Z,64.13
2023-03-31T18:25:21.717Z,64.37
2023-03-31T18:27:51.116Z,64.48
2023-03-31T18:30:20.596Z,64.61
2023-03-31T18:32:49.920Z,64.69
2023-03-31T18:35:20.485Z,64.87
2023-03-31T18:37:49.830Z,64.79
2023-03-31T18:40:20.783Z,64.69
2023-03-31T18:42:50.027Z,64.51
2023-03-31T18:45:19.441Z,64.96
2023-03-31T18:47:48.809Z,64.84
2023-03-31T18:50:18.203Z,64.83
2023-03-31T18:52:48.445Z,65.11
2023-03-31T18:55:18.379Z,65.22
2023-03-31T18:57:49.337Z,64.92
2023-03-31T19:00:19.424Z,65.20
2023-03-31T19:02:48.931Z,65.32
2023-03-31T19:05:18.529Z,65.55
2023-03-31T19:07:47.746Z,65.73
2023-03-31T19:10:17.154Z,65.42
2023-03-31T19:12:50.410Z,65.70
2023-03-31T19:15:19.767Z,66.12
2023-03-31T19:17:49.197Z,66.03
2023-03-31T19:20:18.690Z,65.90
2023-03-31T19:22:49.821Z,66.20
2023-03-31T19:25:20.385Z,66.64
2023-03-31T19:27:51.259Z,66.96
2023-03-31T19:30:22.154Z,66.91
2023-03-31T19:32:52.092Z,66.96
2023-03-31T19:35:23.189Z,66.87
2023-03-31T19:37:52.914Z,67.54
2023-03-31T19:40:22.320Z,67.16
2023-03-31T19:42:53.163Z,67.39
2023-03-31T19:45:22.474Z,67.63
2023-03-31T19:47:52.184Z,67.06
2023-03-31T19:50:21.505Z,66.85
2023-03-31T19:52:51.058Z,66.98
2023-03-31T19:55:20.614Z,66.46
2023-03-31T19:57:49.985Z,66.55
2023-03-31T20:00:21.965Z,66.76
2023-03-31T20:02:51.524Z,66.58
2023-03-31T20:05:21.458Z,66.20
2023-03-31T20:07:50.874Z,66.67
2023-03-31T20:10:20.669Z,66.41
2023-03-31T20:12:52.161Z,66.06
2023-03-31T20:15:22.941Z,66.34
2023-03-31T20:17:52.760Z,66.33
2023-03-31T20:20:22.097Z,66.40
2023-03-31T20:22:51.415Z,66.17
2023-03-31T20:25:20.685Z,66.07
2023-03-31T20:27:49.917Z,66.18
2023-03-31T20:30:19.374Z,66.25
2023-03-31T20:32:50.268Z,66.57
2023-03-31T20:35:19.696Z,66.68
2023-03-31T20:37:49.103Z,66.08
2023-03-31T20:40:18.628Z,66.72
2023-03-31T20:42:47.845Z,66.55
2023-03-31T20:45:17.703Z,66.53
2023-03-31T20:47:47.245Z,66.14
2023-03-31T20:50:18.171Z,66.42
2023-03-31T20:52:48.131Z,66.58
2023-03-31T20:55:17.632Z,66.30
2023-03-31T20:57:47.493Z,66.15
2023-03-31T21:00:17.839Z,66.21
2023-03-31T21:02:47.221Z,66.06
2023-03-31T21:05:18.474Z,66.06
2023-03-31T21:07:47.937Z,65.75
2023-03-31T21:10:17.388Z,65.93
2023-03-31T21:12:46.829Z,66.11
2023-03-31T21:15:16.203Z,65.82
2023-03-31T21:17:46.198Z,66.23
2023-03-31T21:20:15.468Z,65.93
2023-03-31T21:22:46.267Z,66.25
2023-03-31T21:25:15.508Z,66.08
2023-03-31T21:27:44.723Z,66.54
2023-03-31T21:30:15.618Z,66.31
2023-03-31T21:32:44.951Z,66.26
2023-03-31T21:35:14.215Z,66.72
2023-03-31T21:37:45.065Z,66.70
2023-03-31T21:40:17.067Z,65.96
2023-03-31T21:42:46.515Z,65.91
2023-03-31T21:45:16.239Z,66.67
2023-03-31T21:47:45.520Z,66.40
2023-03-31T21:50:14.860Z,66.18
2023-03-31T21:52:45.669Z,66.23
2023-03-31T21:55:15.053Z,66.10
2023-03-31T21:57:44.467Z,65.88
2023-03-31T22:00:16.226Z,66.37
2023-03-31T22:02:45.566Z,66.49
2023-03-31T22:05:14.888Z,66.23
2023-03-31T22:07:46.100Z,66.55
2023-03-31T22:10:15.801Z,66.64
2023-03-31T22:12:45.034Z,66.27
2023-03-31T22:15:14.404Z,66.58
2023-03-31T22:17:43.739Z,66.49
2023-03-31T22:20:14.479Z,66.56
2023-03-31T22:22:45.334Z,67.00
2023-03-31T22:25:14.593Z,66.77
2023-03-31T22:27:43.860Z,66.51
2023-03-31T22:30:14.047Z,66.96
2023-03-31T22:32:43.386Z,66.85
2023-03-31T22:35:12.729Z,67.10
2023-03-31T22:37:41.987Z,66.94
2023-03-31T22:40:13.323Z,66.60
2023-03-31T22:42:43.225Z,66.94
2023-03-31T22:45:12.863Z,67.00
2023-03-31T22:47:43.035Z,67.19
2023-03-31T22:50:13.339Z,67.01
2023-03-31T22:52:42.698Z,66.96
2023-03-31T22:55:13.579Z,67.13
2023-03-31T22:57:43.149Z,67.30
2023-03-31T23:00:13.384Z,67.13
2023-03-31T23:02:42.806Z,67.04
2023-03-31T23:05:12.724Z,67.01
2023-03-31T23:07:42.033Z,67.04
2023-03-31T23:10:13.391Z,67.21
2023-03-31T23:12:42.701Z,67.24
2023-03-31T23:15:12.485Z,66.97
2023-03-31T23:17:41.857Z,66.91
2023-03-31T23:20:12.024Z,67.14
2023-03-31T23:22:41.240Z,67.05
2023-03-31T23:25:10.927Z,67.43
2023-03-31T23:27:42.123Z,67.16
2023-03-31T23:30:12.389Z,66.99
2023-03-31T23:32:41.705Z,67.37
2023-03-31T23:35:11.900Z,67.36
2023-03-31T23:37:41.488Z,67.53
2023-03-31T23:40:11.524Z,67.46
2023-03-31T23:42:42.261Z,67.58
2023-03-31T23:45:15.577Z,67.35
2023-03-31T23:47:50.398Z,67.26
2023-03-31T23:50:19.841Z,67.36
2023-03-31T23:52:49.615Z,67.38
2023-03-31T23:55:19.113Z,67.06
2023-03-31T23:57:52.507Z,67.73
